createdAt,value
2022-10-22T00:01:44.329Z,99321.17
2022-10-22T00:04:50.671Z,99326.04
2022-10-22T00:07:52.470Z,99335.84
2022-10-22T00:10:54.729Z,99329.66
2022-10-22T00:13:58.130Z,99333.77
2022-10-22T00:17:01.400Z,99331.64
2022-10-22T00:20:04.578Z,99327.13
2022-10-22T00:23:07.019Z,99335.89
2022-10-22T00:26:08.967Z,99348.63
2022-10-22T00:29:10.831Z,99343.94
2022-10-22T00:32:12.901Z,99339.92
2022-10-22T00:35:14.673Z,99335.09
2022-10-22T00:38:16.394Z,99327.69
2022-10-22T00:41:18.178Z,99330.05
2022-10-22T00:44:57.774Z,99330.09
2022-10-22T00:48:02.603Z,99323.52
2022-10-22T00:51:06.751Z,99323.64
2022-10-22T00:54:09.171Z,99321.34
2022-10-22T00:57:10.961Z,99321.45
2022-10-22T01:00:13.114Z,99325.05
2022-10-22T01:03:15.379Z,99327.30
2022-10-22T01:06:25.441Z,99327.73
2022-10-22T01:09:52.407Z,99329.21
2022-10-22T01:13:00.411Z,99322.44
2022-10-22T01:16:12.021Z,99319.11
2022-10-22T01:19:26.296Z,99318.38
2022-10-22T01:22:44.716Z,99317.81
2022-10-22T01:26:05.426Z,99308.13
2022-10-22T01:29:16.487Z,99307.95
2022-10-22T01:32:23.914Z,99305.64
2022-10-22T01:35:29.224Z,99310.89
2022-10-22T01:38:31.426Z,99311.98
2022-10-22T01:41:34.830Z,99306.20
2022-10-22T01:44:37.635Z,99300.77
2022-10-22T01:47:53.918Z,99297.36
2022-10-22T01:50:58.557Z,99296.21
2022-10-22T01:54:07.048Z,99297.36
2022-10-22T01:57:08.719Z,99298.67
2022-10-22T02:00:12.683Z,99289.58
2022-10-22T02:03:21.343Z,99283.44
2022-10-22T02:06:26.106Z,99279.61
2022-10-22T02:09:29.207Z,99281.75
2022-10-22T02:12:32.698Z,99283.61
2022-10-22T02:15:36.273Z,99286.48
2022-10-22T02:18:40.789Z,99287.95
2022-10-22T02:21:42.927Z,99281.77
2022-10-22T02:24:45.018Z,99267.27
2022-10-22T02:27:49.882Z,99263.59
2022-10-22T02:31:02.091Z,99266.13
2022-10-22T02:34:10.234Z,99263.79
2022-10-22T02:37:12.832Z,99260.09
2022-10-22T02:40:14.726Z,99260.49
2022-10-22T02:43:18.473Z,99277.84
2022-10-22T02:46:20.246Z,99288.52
2022-10-22T02:49:22.074Z,99277.92
2022-10-22T02:52:23.850Z,99280.58
2022-10-22T02:55:25.619Z,99297.73
2022-10-22T02:58:27.352Z,99297.20
2022-10-22T03:01:29.247Z,99291.30
2022-10-22T03:04:31.157Z,99285.85
2022-10-22T03:07:33.630Z,99287.04
2022-10-22T03:10:35.440Z,99292.71
2022-10-22T03:13:37.932Z,99293.70
2022-10-22T03:16:39.698Z,99294.63
2022-10-22T03:19:42.259Z,99293.58
2022-10-22T03:22:45.116Z,99285.71
2022-10-22T03:25:48.486Z,99283.68
2022-10-22T03:28:50.362Z,99281.31
2022-10-22T03:31:52.842Z,99280.48
2022-10-22T03:34:54.686Z,99280.31
2022-10-22T03:37:56.547Z,99280.27
2022-10-22T03:40:58.639Z,99274.20
2022-10-22T03:44:02.135Z,99282.05
2022-10-22T03:47:04.398Z,99284.38
2022-10-22T03:50:06.925Z,99285.38
2022-10-22T03:53:10.840Z,99273.97
2022-10-22T03:56:13.502Z,99277.92
2022-10-22T03:59:15.541Z,99275.40
2022-10-22T04:02:17.372Z,99273.02
2022-10-22T04:05:19.115Z,99271.33
2022-10-22T04:08:20.828Z,99270.05
2022-10-22T04:11:22.433Z,99269.34
2022-10-22T04:14:24.311Z,99268.38
2022-10-22T04:17:26.078Z,99266.74
2022-10-22T04:20:27.686Z,99257.15
2022-10-22T04:23:29.496Z,99249.95
2022-10-22T04:26:31.321Z,99243.90
2022-10-22T04:29:33.186Z,99244.38
2022-10-22T04:32:34.940Z,99250.46
2022-10-22T04:35:39.928Z,99256.48
2022-10-22T04:38:43.003Z,99251.14
2022-10-22T04:41:44.772Z,99237.80
2022-10-22T04:44:46.649Z,99236.81
2022-10-22T04:47:48.411Z,99243.83
2022-10-22T04:50:50.303Z,99256.61
2022-10-22T04:53:52.246Z,99254.51
2022-10-22T04:56:53.946Z,99257.42
2022-10-22T04:59:55.724Z,99254.59
2022-10-22T05:02:57.406Z,99252.33
2022-10-22T05:06:01.134Z,99254.33
2022-10-22T05:09:08.832Z,99256.05
2022-10-22T05:12:10.666Z,99260.34
2022-10-22T05:15:12.272Z,99266.55
2022-10-22T05:18:15.867Z,99276.77
2022-10-22T05:21:19.951Z,99273.94
2022-10-22T05:24:22.175Z,99283.20
2022-10-22T05:27:23.858Z,99285.90
2022-10-22T05:30:25.484Z,99284.20
2022-10-22T05:33:29.083Z,99285.84
2022-10-22T05:36:30.930Z,99278.21
2022-10-22T05:39:36.937Z,99276.13
2022-10-22T05:42:39.050Z,99273.81
2022-10-22T05:45:42.421Z,99278.48
2022-10-22T05:48:44.791Z,99283.21
2022-10-22T05:51:47.169Z,99281.84
2022-10-22T05:54:48.930Z,99277.96
2022-10-22T05:57:50.735Z,99275.16
2022-10-22T06:00:52.511Z,99278.93
2022-10-22T06:04:01.981Z,99283.41
2022-10-22T06:07:03.994Z,99294.11
2022-10-22T06:10:06.788Z,99296.76
2022-10-22T06:13:08.610Z,99293.45
2022-10-22T06:16:10.673Z,99294.89
2022-10-22T06:19:16.915Z,99292.10
2022-10-22T06:22:18.711Z,99288.97
2022-10-22T06:25:20.515Z,99286.73
2022-10-22T06:31:25.940Z,99297.75
2022-10-22T06:34:27.701Z,99305.95
2022-10-22T06:37:29.407Z,99304.16
2022-10-22T06:40:31.300Z,99306.66
2022-10-22T06:43:33.106Z,99307.90
2022-10-22T06:46:34.887Z,99307.48
2022-10-22T06:49:36.928Z,99308.79
2022-10-22T06:52:38.787Z,99306.27
2022-10-22T06:55:40.589Z,99309.45
2022-10-22T06:58:42.431Z,99318.75
2022-10-22T07:01:44.408Z,99323.90
2022-10-22T07:04:46.347Z,99322.25
2022-10-22T07:07:48.168Z,99323.77
2022-10-22T07:10:49.961Z,99324.31
2022-10-22T07:13:53.963Z,99329.20
2022-10-22T07:16:55.973Z,99327.01
2022-10-22T07:19:58.899Z,99334.33
2022-10-22T07:23:00.633Z,99342.65
2022-10-22T07:26:02.968Z,99342.84
2022-10-22T07:29:05.152Z,99335.53
2022-10-22T07:32:06.995Z,99323.11
2022-10-22T07:35:09.140Z,99313.54
2022-10-22T07:38:10.899Z,99313.48
2022-10-22T07:41:13.734Z,99320.73
2022-10-22T07:44:15.554Z,99329.14
2022-10-22T07:47:17.342Z,99332.05
2022-10-22T07:50:19.409Z,99334.52
2022-10-22T07:53:24.307Z,99345.39
2022-10-22T07:56:26.061Z,99362.41
2022-10-22T07:59:27.860Z,99359.08
2022-10-22T08:02:29.591Z,99345.38
2022-10-22T08:05:31.416Z,99330.05
2022-10-22T08:08:33.671Z,99334.86
2022-10-22T08:11:35.480Z,99334.16
2022-10-22T08:14:37.257Z,99318.49
2022-10-22T08:17:39.237Z,99311.80
2022-10-22T08:20:42.412Z,99301.99
2022-10-22T08:23:44.196Z,99288.85
2022-10-22T08:26:46.308Z,99285.02
2022-10-22T08:29:48.371Z,99284.20
2022-10-22T08:32:53.086Z,99289.36
2022-10-22T08:35:56.633Z,99288.62
2022-10-22T08:38:58.356Z,99291.05
2022-10-22T08:42:25.306Z,99294.80
2022-10-22T08:45:52.510Z,99310.63
2022-10-22T08:48:56.378Z,99325.61
2022-10-22T08:51:58.727Z,99348.77
2022-10-22T08:55:02.335Z,99342.11
2022-10-22T08:58:19.057Z,99339.91
2022-10-22T09:01:37.268Z,99342.20
2022-10-22T09:04:48.970Z,99341.11
2022-10-22T09:07:50.942Z,99345.15
2022-10-22T09:11:06.180Z,99351.00
2022-10-22T09:17:34.124Z,99350.70
2022-10-22T09:20:44.582Z,99357.02
2022-10-22T09:24:03.575Z,99349.80
2022-10-22T09:27:15.947Z,99342.36
2022-10-22T09:30:20.443Z,99333.98
2022-10-22T09:33:27.617Z,99318.45
2022-10-22T09:36:30.110Z,99304.92
2022-10-22T09:39:34.830Z,99301.96
2022-10-22T09:42:36.481Z,99301.46
2022-10-22T09:45:38.171Z,99307.23
2022-10-22T09:48:42.310Z,99322.02
2022-10-22T09:51:57.701Z,99332.17
2022-10-22T09:55:02.661Z,99337.17
2022-10-22T09:58:04.934Z,99329.33
2022-10-22T10:01:06.746Z,99319.86
2022-10-22T10:04:14.619Z,99314.69
2022-10-22T10:07:19.659Z,99315.45
2022-10-22T10:10:50.804Z,99308.70
2022-10-22T10:14:06.956Z,99307.33
2022-10-22T10:17:27.563Z,99312.41
2022-10-22T10:20:59.104Z,99318.08
2022-10-22T10:24:03.940Z,99319.44
2022-10-22T10:27:30.034Z,99329.74
2022-10-22T10:30:32.845Z,99332.11
2022-10-22T10:33:47.400Z,99328.02
2022-10-22T10:36:59.860Z,99319.17
2022-10-22T10:40:17.129Z,99319.50
2022-10-22T10:43:40.325Z,99324.13
2022-10-22T10:46:50.462Z,99331.85
2022-10-22T10:49:54.987Z,99338.45
2022-10-22T10:52:56.912Z,99331.83
2022-10-22T10:56:02.942Z,99334.44
2022-10-22T10:59:18.787Z,99336.63
2022-10-22T11:02:48.405Z,99335.39
2022-10-22T11:05:54.579Z,99338.88
2022-10-22T11:09:01.251Z,99337.27
2022-10-22T11:12:07.467Z,99335.92
2022-10-22T11:15:16.830Z,99329.98
2022-10-22T11:18:32.683Z,99320.38
2022-10-22T11:21:42.174Z,99319.34
2022-10-22T11:24:50.888Z,99318.98
2022-10-22T11:28:03.174Z,99315.67
2022-10-22T11:31:16.082Z,99316.92
2022-10-22T11:34:33.835Z,99319.32
2022-10-22T11:37:39.295Z,99318.00
2022-10-22T11:40:48.797Z,99321.11
2022-10-22T11:43:59.040Z,99317.24
2022-10-22T11:47:24.497Z,99313.61
2022-10-22T11:50:27.786Z,99314.52
2022-10-22T11:53:37.766Z,99312.57
2022-10-22T11:56:39.590Z,99311.25
2022-10-22T11:59:49.770Z,99306.52
2022-10-22T12:03:15.959Z,99304.69
2022-10-22T12:06:21.795Z,99298.34
2022-10-22T12:09:26.944Z,99296.74
2022-10-22T12:12:36.202Z,99287.39
2022-10-22T12:15:46.940Z,99283.46
2022-10-22T12:18:49.146Z,99284.98
2022-10-22T12:22:07.705Z,99281.77
2022-10-22T12:25:18.250Z,99278.17
2022-10-22T12:28:20.127Z,99273.88
2022-10-22T12:31:21.940Z,99277.08
2022-10-22T12:34:25.249Z,99284.34
2022-10-22T12:37:29.635Z,99288.80
2022-10-22T12:40:35.234Z,99280.83
2022-10-22T12:43:39.660Z,99278.24
2022-10-22T12:46:42.381Z,99279.03
2022-10-22T12:49:48.715Z,99277.97
2022-10-22T12:52:50.723Z,99279.52
2022-10-22T12:55:54.492Z,99279.55
2022-10-22T12:59:02.258Z,99275.47
2022-10-22T13:02:22.920Z,99276.30
2022-10-22T13:05:28.132Z,99277.04
2022-10-22T13:08:29.969Z,99282.96
2022-10-22T13:11:34.987Z,99283.34
2022-10-22T13:14:38.644Z,99282.73
2022-10-22T13:17:42.461Z,99284.70
2022-10-22T13:21:01.830Z,99281.64
2022-10-22T13:24:20.385Z,99277.04
2022-10-22T13:27:23.757Z,99276.27
2022-10-22T13:30:27.956Z,99276.50
2022-10-22T13:33:33.777Z,99275.83
2022-10-22T13:36:35.973Z,99275.75
2022-10-22T13:39:37.792Z,99280.86
2022-10-22T13:42:40.187Z,99279.11
2022-10-22T13:45:44.727Z,99274.83
2022-10-22T13:48:48.258Z,99273.63
2022-10-22T13:51:51.508Z,99269.17
2022-10-22T13:54:53.389Z,99267.88
2022-10-22T13:58:10.215Z,99271.86
2022-10-22T14:01:27.929Z,99273.41
2022-10-22T14:04:29.883Z,99270.48
2022-10-22T14:07:31.690Z,99264.32
2022-10-22T14:10:33.517Z,99253.91
2022-10-22T14:13:35.433Z,99256.12
2022-10-22T14:16:37.698Z,99254.10
2022-10-22T14:19:39.616Z,99246.07
2022-10-22T14:22:41.515Z,99243.55
2022-10-22T14:25:43.241Z,99244.48
2022-10-22T14:29:07.961Z,99251.21
2022-10-22T14:32:15.141Z,99248.45
2022-10-22T14:35:20.516Z,99244.26
2022-10-22T14:38:22.654Z,99250.78
2022-10-22T14:41:26.141Z,99250.28
2022-10-22T14:44:27.838Z,99251.39
2022-10-22T14:47:29.802Z,99253.34
2022-10-22T14:50:31.607Z,99255.46
2022-10-22T14:53:33.640Z,99262.38
2022-10-22T14:59:43.068Z,99264.67
2022-10-22T15:02:45.412Z,99262.84
2022-10-22T15:05:47.330Z,99266.51
2022-10-22T15:08:49.317Z,99272.77
2022-10-22T15:11:51.434Z,99275.09
2022-10-22T15:14:53.309Z,99281.08
2022-10-22T15:17:54.998Z,99281.68
2022-10-22T15:20:57.557Z,99284.80
2022-10-22T15:24:01.165Z,99281.79
2022-10-22T15:27:03.612Z,99280.20
2022-10-22T15:30:07.334Z,99286.96
2022-10-22T15:33:09.171Z,99287.34
2022-10-22T15:36:16.210Z,99289.71
2022-10-22T15:39:18.577Z,99292.98
2022-10-22T15:42:20.434Z,99287.70
2022-10-22T15:45:24.430Z,99284.70
2022-10-22T15:48:26.199Z,99288.70
2022-10-22T15:51:28.044Z,99284.46
2022-10-22T15:54:30.655Z,99281.19
2022-10-22T15:57:33.201Z,99281.79
2022-10-22T16:00:35.037Z,99281.31
2022-10-22T16:03:37.272Z,99286.23
2022-10-22T16:06:45.675Z,99285.89
2022-10-22T16:09:48.481Z,99286.99
2022-10-22T16:12:51.762Z,99289.89
2022-10-22T16:15:56.399Z,99294.50
2022-10-22T16:18:58.479Z,99295.73
2022-10-22T16:22:02.197Z,99299.48
2022-10-22T16:25:04.245Z,99308.10
2022-10-22T16:28:06.815Z,99309.54
2022-10-22T16:31:12.173Z,99310.83
2022-10-22T16:34:13.925Z,99319.87
2022-10-22T16:37:16.078Z,99317.87
2022-10-22T16:40:18.001Z,99324.98
2022-10-22T16:43:19.966Z,99328.84
2022-10-22T16:46:22.695Z,99330.67
2022-10-22T16:49:24.644Z,99338.64
2022-10-22T16:52:26.785Z,99338.91
2022-10-22T16:55:28.486Z,99340.08
2022-10-22T16:58:30.663Z,99342.13
2022-10-22T17:01:36.726Z,99345.37
2022-10-22T17:04:41.595Z,99350.66
2022-10-22T17:07:43.267Z,99352.77
2022-10-22T17:10:45.062Z,99354.77
2022-10-22T17:13:49.094Z,99364.14
2022-10-22T17:16:53.878Z,99368.33
2022-10-22T17:19:55.619Z,99365.67
2022-10-22T17:22:57.596Z,99364.27
2022-10-22T17:26:01.862Z,99362.14
2022-10-22T17:29:04.571Z,99358.00
2022-10-22T17:32:06.472Z,99353.70
2022-10-22T17:35:08.772Z,99355.71
2022-10-22T17:38:10.532Z,99350.96
2022-10-22T17:41:17.994Z,99346.04
2022-10-22T17:44:19.742Z,99348.35
2022-10-22T17:47:22.299Z,99351.38
2022-10-22T17:50:24.051Z,99351.13
2022-10-22T17:53:25.764Z,99348.98
2022-10-22T17:56:30.023Z,99348.02
2022-10-22T17:59:32.676Z,99341.30
2022-10-22T18:02:34.631Z,99348.39
2022-10-22T18:05:36.280Z,99349.00
2022-10-22T18:08:38.045Z,99350.67
2022-10-22T18:11:40.167Z,99351.71
2022-10-22T18:14:41.859Z,99357.10
2022-10-22T18:17:44.046Z,99362.06
2022-10-22T18:20:50.833Z,99363.48
2022-10-22T18:23:53.117Z,99364.93
2022-10-22T18:26:55.395Z,99367.19
2022-10-22T18:29:57.474Z,99368.59
2022-10-22T18:32:59.237Z,99364.75
2022-10-22T18:36:06.795Z,99366.77
2022-10-22T18:39:08.800Z,99374.95
2022-10-22T18:42:10.587Z,99376.18
2022-10-22T18:45:12.362Z,99382.46
2022-10-22T18:48:18.189Z,99386.43
2022-10-22T18:51:20.151Z,99387.37
2022-10-22T18:54:23.627Z,99389.39
2022-10-22T18:57:26.130Z,99391.59
2022-10-22T19:00:27.901Z,99391.98
2022-10-22T19:03:29.559Z,99391.98
2022-10-22T19:06:35.713Z,99393.88
2022-10-22T19:09:37.614Z,99392.66
2022-10-22T19:12:39.411Z,99399.29
2022-10-22T19:15:41.285Z,99399.30
2022-10-22T19:18:43.009Z,99400.98
2022-10-22T19:21:45.300Z,99405.86
2022-10-22T19:24:49.535Z,99407.45
2022-10-22T19:27:51.471Z,99410.65
2022-10-22T19:30:54.716Z,99414.02
2022-10-22T19:33:56.935Z,99416.73
2022-10-22T19:36:59.052Z,99410.11
2022-10-22T19:40:00.909Z,99415.02
2022-10-22T19:43:02.655Z,99411.10
2022-10-22T19:46:05.946Z,99409.17
2022-10-22T19:49:07.770Z,99407.48
2022-10-22T19:52:09.624Z,99412.83
2022-10-22T19:55:11.595Z,99415.16
2022-10-22T19:58:14.036Z,99422.02
2022-10-22T20:01:17.569Z,99430.85
2022-10-22T20:04:19.723Z,99434.09
2022-10-22T20:07:22.574Z,99437.27
2022-10-22T20:10:24.333Z,99445.51
2022-10-22T20:13:26.278Z,99447.77
2022-10-22T20:16:30.266Z,99452.83
2022-10-22T20:19:32.822Z,99456.83
2022-10-22T20:22:34.484Z,99459.50
2022-10-22T20:25:41.590Z,99459.23
2022-10-22T20:28:43.370Z,99466.45
2022-10-22T20:31:45.746Z,99468.18
2022-10-22T20:34:47.592Z,99472.14
2022-10-22T20:37:49.800Z,99475.50
2022-10-22T20:40:59.834Z,99476.35
2022-10-22T20:44:02.082Z,99471.41
2022-10-22T20:47:06.601Z,99474.55
2022-10-22T20:50:09.746Z,99473.79
2022-10-22T20:53:13.497Z,99472.44
2022-10-22T20:56:18.852Z,99472.55
2022-10-22T20:59:24.254Z,99476.27
2022-10-22T21:02:28.158Z,99480.12
2022-10-22T21:05:29.866Z,99481.39
2022-10-22T21:08:32.247Z,99480.33
2022-10-22T21:11:35.102Z,99479.95
2022-10-22T21:14:36.976Z,99484.03
2022-10-22T21:17:40.441Z,99490.70
2022-10-22T21:20:42.206Z,99494.98
2022-10-22T21:23:44.101Z,99501.52
2022-10-22T21:26:46.491Z,99504.02
2022-10-22T21:29:48.177Z,99505.11
2022-10-22T21:32:49.986Z,99505.77
2022-10-22T21:35:53.541Z,99508.61
2022-10-22T21:38:55.423Z,99516.78
2022-10-22T21:41:57.131Z,99515.07
2022-10-22T21:44:58.955Z,99515.43
2022-10-22T21:48:00.819Z,99512.37
2022-10-22T21:51:11.003Z,99507.70
2022-10-22T21:54:13.152Z,99510.66
2022-10-22T21:57:15.017Z,99513.36
2022-10-22T22:00:20.766Z,99507.30
2022-10-22T22:03:23.613Z,99509.43
2022-10-22T22:06:29.543Z,99515.42
2022-10-22T22:09:34.090Z,99521.55
2022-10-22T22:12:36.402Z,99529.96
2022-10-22T22:15:38.082Z,99532.89
2022-10-22T22:18:41.015Z,99527.39
2022-10-22T22:21:45.966Z,99526.67
2022-10-22T22:24:47.830Z,99529.61
2022-10-22T22:27:49.745Z,99525.57
2022-10-22T22:30:51.725Z,99529.66
2022-10-22T22:34:22.844Z,99539.52
2022-10-22T22:37:24.663Z,99549.80
2022-10-22T22:40:29.154Z,99558.16
2022-10-22T22:43:32.562Z,99563.19
2022-10-22T22:46:34.476Z,99557.95
2022-10-22T22:49:37.038Z,99561.23
2022-10-22T22:52:39.000Z,99563.66
2022-10-22T22:55:41.061Z,99565.35
2022-10-22T22:58:43.203Z,99568.57
2022-10-22T23:01:48.023Z,99574.98
2022-10-22T23:05:10.676Z,99574.48
2022-10-22T23:08:26.531Z,99569.71
2022-10-22T23:11:45.628Z,99576.45
2022-10-22T23:14:51.476Z,99576.01
2022-10-22T23:17:53.285Z,99581.29
2022-10-22T23:20:55.039Z,99587.63
2022-10-22T23:24:00.224Z,99582.41
2022-10-22T23:27:04.108Z,99584.66
2022-10-22T23:30:06.474Z,99579.41
2022-10-22T23:33:12.230Z,99575.11
2022-10-22T23:36:14.333Z,99573.14
2022-10-22T23:39:19.737Z,99575.05
2022-10-22T23:42:21.532Z,99584.08
2022-10-22T23:45:23.357Z,99593.27
2022-10-22T23:48:25.261Z,99597.33
2022-10-22T23:51:27.544Z,99594.96
2022-10-22T23:54:29.321Z,99602.77
2022-10-22T23:57:31.082Z,99601.95
